sensor_id;sensor_type;location;lat;lon;timestamp;P1;durP1;ratioP1;P2;durP2;ratioP2
11191;SDS011;5652;48.406;10.820;2022-09-12T00:01:57;6.90;;;3.50;;
11191;SDS011;5652;48.406;10.820;2022-09-12T00:04:24;20.83;;;3.95;;
11191;SDS011;5652;48.406;10.820;2022-09-12T00:06:53;24.85;;;4.03;;
11191;SDS011;5652;48.406;10.820;2022-09-12T00:09:20;10.45;;;3.30;;
11191;SDS011;5652;48.406;10.820;2022-09-12T00:11:48;17.15;;;3.38;;
11191;SDS011;5652;48.406;10.820;2022-09-12T00:14:16;6.18;;;3.75;;
11191;SDS011;5652;48.406;10.820;2022-09-12T00:16:43;6.22;;;3.70;;
11191;SDS011;5652;48.406;10.820;2022-09-12T00:19:10;6.20;;;3.33;;
11191;SDS011;5652;48.406;10.820;2022-09-12T00:21:38;7.25;;;3.40;;
11191;SDS011;5652;48.406;10.820;2022-09-12T00:24:08;6.03;;;3.33;;
11191;SDS011;5652;48.406;10.820;2022-09-12T00:26:35;3.65;;;3.03;;
11191;SDS011;5652;48.406;10.820;2022-09-12T00:29:03;5.77;;;2.80;;
11191;SDS011;5652;48.406;10.820;2022-09-12T00:31:30;3.80;;;2.97;;
11191;SDS011;5652;48.406;10.820;2022-09-12T00:33:58;7.28;;;3.08;;
11191;SDS011;5652;48.406;10.820;2022-09-12T00:36:25;3.67;;;2.60;;
11191;SDS011;5652;48.406;10.820;2022-09-12T00:38:53;3.67;;;3.08;;
11191;SDS011;5652;48.406;10.820;2022-09-12T00:41:26;4.70;;;3.20;;
11191;SDS011;5652;48.406;10.820;2022-09-12T00:43:55;4.97;;;3.50;;
11191;SDS011;5652;48.406;10.820;2022-09-12T00:46:28;6.53;;;3.28;;
11191;SDS011;5652;48.406;10.820;2022-09-12T00:48:58;6.38;;;3.38;;
11191;SDS011;5652;48.406;10.820;2022-09-12T00:51:26;5.53;;;3.63;;
11191;SDS011;5652;48.406;10.820;2022-09-12T00:53:54;7.95;;;3.53;;
11191;SDS011;5652;48.406;10.820;2022-09-12T00:56:24;16.15;;;4.10;;
11191;SDS011;5652;48.406;10.820;2022-09-12T00:58:53;5.82;;;3.55;;
11191;SDS011;5652;48.406;10.820;2022-09-12T01:01:21;13.00;;;4.22;;
11191;SDS011;5652;48.406;10.820;2022-09-12T01:03:48;19.95;;;3.97;;
11191;SDS011;5652;48.406;10.820;2022-09-12T01:06:17;28.57;;;4.00;;
11191;SDS011;5652;48.406;10.820;2022-09-12T01:08:45;56.55;;;5.22;;
11191;SDS011;5652;48.406;10.820;2022-09-12T01:11:13;39.60;;;4.35;;
11191;SDS011;5652;48.406;10.820;2022-09-12T01:13:43;30.07;;;3.60;;
11191;SDS011;5652;48.406;10.820;2022-09-12T01:16:11;15.13;;;3.20;;
11191;SDS011;5652;48.406;10.820;2022-09-12T01:18:50;12.10;;;3.33;;
11191;SDS011;5652;48.406;10.820;2022-09-12T01:21:23;4.20;;;2.63;;
11191;SDS011;5652;48.406;10.820;2022-09-12T01:26:55;20.75;;;3.22;;
11191;SDS011;5652;48.406;10.820;2022-09-12T01:29:29;6.43;;;2.90;;
11191;SDS011;5652;48.406;10.820;2022-09-12T01:32:02;8.43;;;3.17;;
11191;SDS011;5652;48.406;10.820;2022-09-12T01:34:32;15.98;;;3.15;;
11191;SDS011;5652;48.406;10.820;2022-09-12T01:37:03;18.73;;;3.47;;
11191;SDS011;5652;48.406;10.820;2022-09-12T01:39:34;11.35;;;3.50;;
11191;SDS011;5652;48.406;10.820;2022-09-12T01:42:07;5.53;;;3.90;;
11191;SDS011;5652;48.406;10.820;2022-09-12T01:44:38;5.00;;;3.47;;
11191;SDS011;5652;48.406;10.820;2022-09-12T01:47:08;5.43;;;3.50;;
11191;SDS011;5652;48.406;10.820;2022-09-12T01:49:38;5.05;;;3.70;;
11191;SDS011;5652;48.406;10.820;2022-09-12T01:52:09;4.13;;;3.22;;
11191;SDS011;5652;48.406;10.820;2022-09-12T01:54:40;7.57;;;3.50;;
11191;SDS011;5652;48.406;10.820;2022-09-12T01:57:09;4.28;;;3.28;;
11191;SDS011;5652;48.406;10.820;2022-09-12T01:59:40;8.10;;;3.25;;
11191;SDS011;5652;48.406;10.820;2022-09-12T02:02:11;9.85;;;3.30;;
11191;SDS011;5652;48.406;10.820;2022-09-12T02:04:42;4.47;;;3.45;;
11191;SDS011;5652;48.406;10.820;2022-09-12T02:07:12;8.60;;;3.42;;
11191;SDS011;5652;48.406;10.820;2022-09-12T02:09:42;12.80;;;3.53;;
11191;SDS011;5652;48.406;10.820;2022-09-12T02:12:11;60.72;;;5.32;;
11191;SDS011;5652;48.406;10.820;2022-09-12T02:14:41;298.70;;;10.70;;
11191;SDS011;5652;48.406;10.820;2022-09-12T02:17:09;97.17;;;6.03;;
11191;SDS011;5652;48.406;10.820;2022-09-12T02:19:39;77.43;;;5.43;;
11191;SDS011;5652;48.406;10.820;2022-09-12T02:22:07;340.67;;;10.50;;
11191;SDS011;5652;48.406;10.820;2022-09-12T02:24:38;418.90;;;12.10;;
11191;SDS011;5652;48.406;10.820;2022-09-12T02:27:08;77.82;;;5.70;;
11191;SDS011;5652;48.406;10.820;2022-09-12T02:29:36;36.95;;;4.75;;
11191;SDS011;5652;48.406;10.820;2022-09-12T02:32:05;4.60;;;3.35;;
11191;SDS011;5652;48.406;10.820;2022-09-12T02:34:40;4.77;;;3.13;;
11191;SDS011;5652;48.406;10.820;2022-09-12T02:37:10;4.10;;;2.85;;
11191;SDS011;5652;48.406;10.820;2022-09-12T02:39:38;4.13;;;3.07;;
11191;SDS011;5652;48.406;10.820;2022-09-12T02:42:05;8.25;;;2.75;;
11191;SDS011;5652;48.406;10.820;2022-09-12T02:44:33;4.40;;;3.30;;
11191;SDS011;5652;48.406;10.820;2022-09-12T02:47:02;4.47;;;3.10;;
11191;SDS011;5652;48.406;10.820;2022-09-12T02:49:30;4.13;;;2.90;;
11191;SDS011;5652;48.406;10.820;2022-09-12T02:51:59;7.77;;;2.73;;
11191;SDS011;5652;48.406;10.820;2022-09-12T02:54:27;4.28;;;2.70;;
11191;SDS011;5652;48.406;10.820;2022-09-12T02:56:55;16.63;;;3.30;;
11191;SDS011;5652;48.406;10.820;2022-09-12T02:59:22;18.00;;;3.45;;
11191;SDS011;5652;48.406;10.820;2022-09-12T03:02:03;16.93;;;3.53;;
11191;SDS011;5652;48.406;10.820;2022-09-12T03:04:37;21.52;;;3.58;;
11191;SDS011;5652;48.406;10.820;2022-09-12T03:07:11;5.45;;;3.67;;
11191;SDS011;5652;48.406;10.820;2022-09-12T03:09:41;6.43;;;3.63;;
11191;SDS011;5652;48.406;10.820;2022-09-12T03:12:13;8.90;;;4.28;;
11191;SDS011;5652;48.406;10.820;2022-09-12T03:14:51;6.82;;;3.83;;
11191;SDS011;5652;48.406;10.820;2022-09-12T03:17:28;5.30;;;3.40;;
11191;SDS011;5652;48.406;10.820;2022-09-12T03:19:57;7.10;;;4.20;;
11191;SDS011;5652;48.406;10.820;2022-09-12T03:22:29;6.40;;;3.47;;
11191;SDS011;5652;48.406;10.820;2022-09-12T03:25:02;7.00;;;3.72;;
11191;SDS011;5652;48.406;10.820;2022-09-12T03:27:32;68.40;;;5.30;;
11191;SDS011;5652;48.406;10.820;2022-09-12T03:30:02;20.35;;;4.30;;
11191;SDS011;5652;48.406;10.820;2022-09-12T03:32:39;9.68;;;3.92;;
11191;SDS011;5652;48.406;10.820;2022-09-12T03:35:06;16.00;;;4.25;;
11191;SDS011;5652;48.406;10.820;2022-09-12T03:37:35;24.02;;;4.18;;
11191;SDS011;5652;48.406;10.820;2022-09-12T03:40:02;28.02;;;4.95;;
11191;SDS011;5652;48.406;10.820;2022-09-12T03:42:29;19.23;;;5.10;;
11191;SDS011;5652;48.406;10.820;2022-09-12T03:44:57;11.88;;;4.03;;
11191;SDS011;5652;48.406;10.820;2022-09-12T03:47:24;17.85;;;4.20;;
11191;SDS011;5652;48.406;10.820;2022-09-12T03:49:51;13.77;;;4.00;;
11191;SDS011;5652;48.406;10.820;2022-09-12T03:52:18;26.50;;;4.68;;
11191;SDS011;5652;48.406;10.820;2022-09-12T03:54:47;58.42;;;5.00;;
11191;SDS011;5652;48.406;10.820;2022-09-12T03:57:14;26.48;;;3.70;;
11191;SDS011;5652;48.406;10.820;2022-09-12T03:59:41;24.40;;;4.30;;
11191;SDS011;5652;48.406;10.820;2022-09-12T04:02:08;17.13;;;3.72;;
11191;SDS011;5652;48.406;10.820;2022-09-12T04:04:37;13.77;;;4.10;;
11191;SDS011;5652;48.406;10.820;2022-09-12T04:07:07;25.25;;;4.40;;
11191;SDS011;5652;48.406;10.820;2022-09-12T04:09:35;56.07;;;4.57;;
11191;SDS011;5652;48.406;10.820;2022-09-12T04:12:04;9.45;;;3.08;;
11191;SDS011;5652;48.406;10.820;2022-09-12T04:14:32;45.77;;;4.13;;
11191;SDS011;5652;48.406;10.820;2022-09-12T04:16:59;47.92;;;4.35;;
11191;SDS011;5652;48.406;10.820;2022-09-12T04:19:26;64.93;;;5.40;;
11191;SDS011;5652;48.406;10.820;2022-09-12T04:21:53;135.05;;;6.65;;
11191;SDS011;5652;48.406;10.820;2022-09-12T04:24:20;30.77;;;3.20;;
11191;SDS011;5652;48.406;10.820;2022-09-12T04:26:48;16.92;;;3.17;;
11191;SDS011;5652;48.406;10.820;2022-09-12T04:29:17;17.98;;;3.03;;
11191;SDS011;5652;48.406;10.820;2022-09-12T04:31:45;25.27;;;3.25;;
11191;SDS011;5652;48.406;10.820;2022-09-12T04:34:12;20.27;;;2.97;;
11191;SDS011;5652;48.406;10.820;2022-09-12T04:36:40;12.80;;;2.95;;
11191;SDS011;5652;48.406;10.820;2022-09-12T04:39:07;8.38;;;2.65;;
11191;SDS011;5652;48.406;10.820;2022-09-12T04:41:35;5.13;;;2.70;;
11191;SDS011;5652;48.406;10.820;2022-09-12T04:44:04;5.97;;;2.85;;
11191;SDS011;5652;48.406;10.820;2022-09-12T04:46:33;5.47;;;2.83;;
11191;SDS011;5652;48.406;10.820;2022-09-12T04:49:01;32.58;;;4.05;;
11191;SDS011;5652;48.406;10.820;2022-09-12T04:51:29;36.85;;;4.07;;
11191;SDS011;5652;48.406;10.820;2022-09-12T04:53:58;14.30;;;3.35;;
11191;SDS011;5652;48.406;10.820;2022-09-12T04:56:27;6.38;;;3.35;;
11191;SDS011;5652;48.406;10.820;2022-09-12T04:58:55;8.52;;;3.28;;
11191;SDS011;5652;48.406;10.820;2022-09-12T05:01:23;10.43;;;3.25;;
11191;SDS011;5652;48.406;10.820;2022-09-12T05:03:52;8.02;;;3.63;;
11191;SDS011;5652;48.406;10.820;2022-09-12T05:06:20;11.68;;;3.45;;
11191;SDS011;5652;48.406;10.820;2022-09-12T05:08:48;11.33;;;3.30;;
11191;SDS011;5652;48.406;10.820;2022-09-12T05:11:15;24.27;;;3.88;;
11191;SDS011;5652;48.406;10.820;2022-09-12T05:13:43;8.73;;;2.87;;
11191;SDS011;5652;48.406;10.820;2022-09-12T05:16:11;6.80;;;2.80;;
11191;SDS011;5652;48.406;10.820;2022-09-12T05:18:39;7.25;;;2.90;;
11191;SDS011;5652;48.406;10.820;2022-09-12T05:21:09;6.25;;;3.05;;
11191;SDS011;5652;48.406;10.820;2022-09-12T05:23:37;6.57;;;2.92;;
11191;SDS011;5652;48.406;10.820;2022-09-12T05:26:04;9.48;;;3.10;;
11191;SDS011;5652;48.406;10.820;2022-09-12T05:28:32;6.70;;;2.80;;
11191;SDS011;5652;48.406;10.820;2022-09-12T05:31:00;8.10;;;3.22;;
11191;SDS011;5652;48.406;10.820;2022-09-12T05:33:27;8.10;;;2.75;;
11191;SDS011;5652;48.406;10.820;2022-09-12T05:35:55;13.13;;;2.85;;
11191;SDS011;5652;48.406;10.820;2022-09-12T05:38:23;11.82;;;3.03;;
11191;SDS011;5652;48.406;10.820;2022-09-12T05:40:53;5.32;;;3.10;;
11191;SDS011;5652;48.406;10.820;2022-09-12T05:43:21;7.82;;;3.30;;
11191;SDS011;5652;48.406;10.820;2022-09-12T05:45:48;3.95;;;3.03;;
11191;SDS011;5652;48.406;10.820;2022-09-12T05:48:15;4.47;;;3.10;;
11191;SDS011;5652;48.406;10.820;2022-09-12T05:50:42;4.10;;;2.90;;
11191;SDS011;5652;48.406;10.820;2022-09-12T05:53:10;4.65;;;3.35;;
11191;SDS011;5652;48.406;10.820;2022-09-12T05:55:38;4.17;;;3.20;;
11191;SDS011;5652;48.406;10.820;2022-09-12T05:58:06;4.55;;;3.35;;
11191;SDS011;5652;48.406;10.820;2022-09-12T06:00:33;7.45;;;3.25;;
11191;SDS011;5652;48.406;10.820;2022-09-12T06:03:00;3.40;;;2.70;;
11191;SDS011;5652;48.406;10.820;2022-09-12T06:05:27;3.67;;;2.92;;
11191;SDS011;5652;48.406;10.820;2022-09-12T06:07:55;4.40;;;2.50;;
11191;SDS011;5652;48.406;10.820;2022-09-12T06:10:23;3.72;;;2.70;;
11191;SDS011;5652;48.406;10.820;2022-09-12T06:12:51;3.97;;;3.15;;
11191;SDS011;5652;48.406;10.820;2022-09-12T06:15:18;4.00;;;3.30;;
11191;SDS011;5652;48.406;10.820;2022-09-12T06:17:47;3.60;;;3.00;;
11191;SDS011;5652;48.406;10.820;2022-09-12T06:20:14;4.05;;;3.20;;
11191;SDS011;5652;48.406;10.820;2022-09-12T06:22:45;4.45;;;3.72;;
11191;SDS011;5652;48.406;10.820;2022-09-12T06:25:12;4.68;;;3.50;;
11191;SDS011;5652;48.406;10.820;2022-09-12T06:27:39;4.45;;;3.20;;
11191;SDS011;5652;48.406;10.820;2022-09-12T06:30:08;3.50;;;2.67;;
11191;SDS011;5652;48.406;10.820;2022-09-12T06:32:36;3.88;;;3.10;;
11191;SDS011;5652;48.406;10.820;2022-09-12T06:35:03;3.80;;;2.90;;
11191;SDS011;5652;48.406;10.820;2022-09-12T06:37:30;2.58;;;2.20;;
11191;SDS011;5652;48.406;10.820;2022-09-12T06:39:59;2.88;;;1.92;;
11191;SDS011;5652;48.406;10.820;2022-09-12T06:42:26;2.00;;;1.80;;
11191;SDS011;5652;48.406;10.820;2022-09-12T06:44:53;2.80;;;1.80;;
11191;SDS011;5652;48.406;10.820;2022-09-12T06:47:22;2.00;;;1.65;;
11191;SDS011;5652;48.406;10.820;2022-09-12T06:49:49;1.77;;;1.57;;
11191;SDS011;5652;48.406;10.820;2022-09-12T06:52:16;3.10;;;1.80;;
11191;SDS011;5652;48.406;10.820;2022-09-12T06:54:43;2.20;;;1.70;;
11191;SDS011;5652;48.406;10.820;2022-09-12T06:57:11;2.40;;;1.60;;
11191;SDS011;5652;48.406;10.820;2022-09-12T06:59:38;2.03;;;1.70;;
11191;SDS011;5652;48.406;10.820;2022-09-12T07:02:07;2.22;;;1.95;;
11191;SDS011;5652;48.406;10.820;2022-09-12T07:04:35;2.30;;;1.77;;
11191;SDS011;5652;48.406;10.820;2022-09-12T07:07:02;2.30;;;1.90;;
11191;SDS011;5652;48.406;10.820;2022-09-12T07:09:29;3.00;;;1.92;;
11191;SDS011;5652;48.406;10.820;2022-09-12T07:11:57;3.05;;;1.88;;
11191;SDS011;5652;48.406;10.820;2022-09-12T07:14:27;2.55;;;2.03;;
11191;SDS011;5652;48.406;10.820;2022-09-12T07:16:54;2.30;;;2.10;;
11191;SDS011;5652;48.406;10.820;2022-09-12T07:19:21;2.58;;;2.15;;
11191;SDS011;5652;48.406;10.820;2022-09-12T07:21:50;2.67;;;1.92;;
11191;SDS011;5652;48.406;10.820;2022-09-12T07:24:18;2.22;;;1.80;;
11191;SDS011;5652;48.406;10.820;2022-09-12T07:26:45;2.10;;;1.73;;
11191;SDS011;5652;48.406;10.820;2022-09-12T07:29:14;2.65;;;1.85;;
11191;SDS011;5652;48.406;10.820;2022-09-12T07:31:41;1.92;;;1.70;;
11191;SDS011;5652;48.406;10.820;2022-09-12T07:34:09;4.70;;;1.70;;
11191;SDS011;5652;48.406;10.820;2022-09-12T07:36:36;2.08;;;1.73;;
11191;SDS011;5652;48.406;10.820;2022-09-12T07:39:05;2.58;;;1.70;;
11191;SDS011;5652;48.406;10.820;2022-09-12T07:41:32;2.40;;;1.80;;
11191;SDS011;5652;48.406;10.820;2022-09-12T07:44:00;2.85;;;1.70;;
11191;SDS011;5652;48.406;10.820;2022-09-12T07:46:28;2.40;;;1.63;;
11191;SDS011;5652;48.406;10.820;2022-09-12T07:48:58;1.70;;;1.60;;
11191;SDS011;5652;48.406;10.820;2022-09-12T07:51:25;2.83;;;1.65;;
11191;SDS011;5652;48.406;10.820;2022-09-12T07:53:53;1.92;;;1.67;;
11191;SDS011;5652;48.406;10.820;2022-09-12T07:56:22;2.15;;;1.60;;
11191;SDS011;5652;48.406;10.820;2022-09-12T07:58:49;2.70;;;1.70;;
11191;SDS011;5652;48.406;10.820;2022-09-12T08:01:17;3.22;;;1.63;;
11191;SDS011;5652;48.406;10.820;2022-09-12T08:03:45;1.55;;;1.30;;
11191;SDS011;5652;48.406;10.820;2022-09-12T08:06:13;1.50;;;1.40;;
11191;SDS011;5652;48.406;10.820;2022-09-12T08:08:40;4.90;;;1.57;;
11191;SDS011;5652;48.406;10.820;2022-09-12T08:11:08;2.03;;;1.70;;
11191;SDS011;5652;48.406;10.820;2022-09-12T08:13:37;2.17;;;1.70;;
11191;SDS011;5652;48.406;10.820;2022-09-12T08:16:06;2.63;;;1.40;;
11191;SDS011;5652;48.406;10.820;2022-09-12T08:18:34;1.30;;;1.20;;
11191;SDS011;5652;48.406;10.820;2022-09-12T08:21:02;2.67;;;1.30;;
11191;SDS011;5652;48.406;10.820;2022-09-12T08:23:30;1.30;;;1.20;;
11191;SDS011;5652;48.406;10.820;2022-09-12T08:25:57;2.20;;;1.30;;
11191;SDS011;5652;48.406;10.820;2022-09-12T08:28:25;1.50;;;1.23;;
11191;SDS011;5652;48.406;10.820;2022-09-12T08:30:58;2.08;;;1.40;;
11191;SDS011;5652;48.406;10.820;2022-09-12T08:33:26;2.35;;;1.60;;
11191;SDS011;5652;48.406;10.820;2022-09-12T08:36:01;2.20;;;1.70;;
11191;SDS011;5652;48.406;10.820;2022-09-12T08:38:28;1.95;;;1.60;;
11191;SDS011;5652;48.406;10.820;2022-09-12T08:40:57;2.47;;;1.80;;
11191;SDS011;5652;48.406;10.820;2022-09-12T08:43:29;3.33;;;1.80;;
11191;SDS011;5652;48.406;10.820;2022-09-12T08:46:03;3.93;;;2.20;;
11191;SDS011;5652;48.406;10.820;2022-09-12T08:48:32;3.58;;;2.20;;
11191;SDS011;5652;48.406;10.820;2022-09-12T08:51:00;2.63;;;2.10;;
11191;SDS011;5652;48.406;10.820;2022-09-12T08:53:29;2.75;;;2.10;;
11191;SDS011;5652;48.406;10.820;2022-09-12T08:55:59;3.22;;;2.22;;
11191;SDS011;5652;48.406;10.820;2022-09-12T08:58:28;2.42;;;1.90;;
11191;SDS011;5652;48.406;10.820;2022-09-12T09:00:57;5.63;;;2.30;;
11191;SDS011;5652;48.406;10.820;2022-09-12T09:03:40;3.35;;;2.30;;
11191;SDS011;5652;48.406;10.820;2022-09-12T09:06:16;4.07;;;2.30;;
11191;SDS011;5652;48.406;10.820;2022-09-12T09:08:50;2.72;;;2.05;;
11191;SDS011;5652;48.406;10.820;2022-09-12T09:11:29;2.88;;;1.95;;
11191;SDS011;5652;48.406;10.820;2022-09-12T09:14:03;2.42;;;1.90;;
11191;SDS011;5652;48.406;10.820;2022-09-12T09:16:52;3.47;;;2.00;;
11191;SDS011;5652;48.406;10.820;2022-09-12T09:19:22;3.00;;;1.70;;
11191;SDS011;5652;48.406;10.820;2022-09-12T09:21:51;2.63;;;1.98;;
11191;SDS011;5652;48.406;10.820;2022-09-12T09:24:20;3.78;;;2.10;;
11191;SDS011;5652;48.406;10.820;2022-09-12T09:26:52;2.70;;;2.03;;
11191;SDS011;5652;48.406;10.820;2022-09-12T09:29:21;2.50;;;1.88;;
11191;SDS011;5652;48.406;10.820;2022-09-12T09:31:51;3.22;;;1.90;;
11191;SDS011;5652;48.406;10.820;2022-09-12T09:34:19;3.63;;;1.90;;
11191;SDS011;5652;48.406;10.820;2022-09-12T09:36:49;4.68;;;1.90;;
11191;SDS011;5652;48.406;10.820;2022-09-12T09:39:19;2.73;;;2.20;;
11191;SDS011;5652;48.406;10.820;2022-09-12T09:41:50;2.75;;;1.90;;
11191;SDS011;5652;48.406;10.820;2022-09-12T09:44:18;3.03;;;1.88;;
11191;SDS011;5652;48.406;10.820;2022-09-12T09:46:46;2.53;;;1.97;;
11191;SDS011;5652;48.406;10.820;2022-09-12T09:49:14;2.40;;;2.20;;
11191;SDS011;5652;48.406;10.820;2022-09-12T09:51:42;2.42;;;2.10;;
11191;SDS011;5652;48.406;10.820;2022-09-12T09:54:12;2.63;;;2.30;;
11191;SDS011;5652;48.406;10.820;2022-09-12T09:56:42;3.13;;;2.10;;
11191;SDS011;5652;48.406;10.820;2022-09-12T09:59:09;3.20;;;2.13;;
11191;SDS011;5652;48.406;10.820;2022-09-12T10:01:42;3.70;;;2.10;;
11191;SDS011;5652;48.406;10.820;2022-09-12T10:04:16;2.30;;;2.03;;
11191;SDS011;5652;48.406;10.820;2022-09-12T10:06:43;2.45;;;2.10;;
11191;SDS011;5652;48.406;10.820;2022-09-12T10:09:23;2.55;;;1.98;;
11191;SDS011;5652;48.406;10.820;2022-09-12T10:11:51;2.55;;;2.03;;
11191;SDS011;5652;48.406;10.820;2022-09-12T10:14:25;3.20;;;2.40;;
11191;SDS011;5652;48.406;10.820;2022-09-12T10:16:53;2.63;;;2.28;;
11191;SDS011;5652;48.406;10.820;2022-09-12T10:19:22;2.87;;;2.00;;
11191;SDS011;5652;48.406;10.820;2022-09-12T10:21:50;2.95;;;1.90;;
11191;SDS011;5652;48.406;10.820;2022-09-12T10:24:19;2.00;;;1.80;;
11191;SDS011;5652;48.406;10.820;2022-09-12T10:26:49;2.25;;;1.98;;
11191;SDS011;5652;48.406;10.820;2022-09-12T10:29:17;2.27;;;1.63;;
11191;SDS011;5652;48.406;10.820;2022-09-12T10:31:48;2.42;;;1.58;;
11191;SDS011;5652;48.406;10.820;2022-09-12T10:34:19;3.15;;;1.83;;
11191;SDS011;5652;48.406;10.820;2022-09-12T10:36:47;2.67;;;2.00;;
11191;SDS011;5652;48.406;10.820;2022-09-12T10:39:16;2.90;;;2.00;;
11191;SDS011;5652;48.406;10.820;2022-09-12T10:41:43;3.38;;;2.03;;
11191;SDS011;5652;48.406;10.820;2022-09-12T10:44:14;2.25;;;1.70;;
11191;SDS011;5652;48.406;10.820;2022-09-12T10:46:41;2.00;;;1.75;;
11191;SDS011;5652;48.406;10.820;2022-09-12T10:49:13;2.10;;;1.67;;
11191;SDS011;5652;48.406;10.820;2022-09-12T10:51:45;2.63;;;1.65;;
11191;SDS011;5652;48.406;10.820;2022-09-12T10:54:13;2.15;;;1.58;;
11191;SDS011;5652;48.406;10.820;2022-09-12T10:56:43;1.70;;;1.60;;
11191;SDS011;5652;48.406;10.820;2022-09-12T10:59:20;3.10;;;1.77;;
11191;SDS011;5652;48.406;10.820;2022-09-12T11:01:53;2.05;;;1.63;;
11191;SDS011;5652;48.406;10.820;2022-09-12T11:04:28;2.50;;;1.80;;
11191;SDS011;5652;48.406;10.820;2022-09-12T11:07:06;2.20;;;1.67;;
11191;SDS011;5652;48.406;10.820;2022-09-12T11:09:38;2.28;;;1.80;;
11191;SDS011;5652;48.406;10.820;2022-09-12T11:12:10;2.55;;;1.70;;
11191;SDS011;5652;48.406;10.820;2022-09-12T11:14:43;1.73;;;1.63;;
11191;SDS011;5652;48.406;10.820;2022-09-12T11:17:17;2.75;;;1.88;;
11191;SDS011;5652;48.406;10.820;2022-09-12T11:19:50;2.40;;;1.70;;
11191;SDS011;5652;48.406;10.820;2022-09-12T11:22:29;1.92;;;1.60;;
11191;SDS011;5652;48.406;10.820;2022-09-12T11:25:09;1.90;;;1.60;;
11191;SDS011;5652;48.406;10.820;2022-09-12T11:27:51;1.73;;;1.60;;
11191;SDS011;5652;48.406;10.820;2022-09-12T11:30:20;3.33;;;1.90;;
11191;SDS011;5652;48.406;10.820;2022-09-12T11:32:56;3.05;;;2.00;;
11191;SDS011;5652;48.406;10.820;2022-09-12T11:35:30;1.80;;;1.60;;
11191;SDS011;5652;48.406;10.820;2022-09-12T11:40:43;2.40;;;2.13;;
11191;SDS011;5652;48.406;10.820;2022-09-12T11:43:17;2.20;;;1.90;;
11191;SDS011;5652;48.406;10.820;2022-09-12T11:45:47;2.13;;;1.67;;
11191;SDS011;5652;48.406;10.820;2022-09-12T11:48:17;2.17;;;1.53;;
11191;SDS011;5652;48.406;10.820;2022-09-12T11:50:45;2.25;;;1.77;;
11191;SDS011;5652;48.406;10.820;2022-09-12T11:53:14;1.70;;;1.50;;
11191;SDS011;5652;48.406;10.820;2022-09-12T11:55:48;2.42;;;1.80;;
11191;SDS011;5652;48.406;10.820;2022-09-12T11:58:18;2.40;;;1.60;;
11191;SDS011;5652;48.406;10.820;2022-09-12T12:00:50;2.25;;;1.77;;
11191;SDS011;5652;48.406;10.820;2022-09-12T12:03:19;2.60;;;1.85;;
11191;SDS011;5652;48.406;10.820;2022-09-12T12:05:52;2.38;;;1.70;;
11191;SDS011;5652;48.406;10.820;2022-09-12T12:08:20;1.90;;;1.77;;
11191;SDS011;5652;48.406;10.820;2022-09-12T12:10:48;1.90;;;1.70;;
11191;SDS011;5652;48.406;10.820;2022-09-12T12:13:17;2.00;;;1.80;;
11191;SDS011;5652;48.406;10.820;2022-09-12T12:15:46;2.10;;;1.90;;
11191;SDS011;5652;48.406;10.820;2022-09-12T12:18:16;2.00;;;1.60;;
11191;SDS011;5652;48.406;10.820;2022-09-12T12:20:44;2.65;;;1.88;;
11191;SDS011;5652;48.406;10.820;2022-09-12T12:23:22;1.70;;;1.60;;
11191;SDS011;5652;48.406;10.820;2022-09-12T12:25:50;2.47;;;1.90;;
11191;SDS011;5652;48.406;10.820;2022-09-12T12:31:00;2.55;;;1.90;;
11191;SDS011;5652;48.406;10.820;2022-09-12T12:36:27;2.58;;;1.63;;
11191;SDS011;5652;48.406;10.820;2022-09-12T12:38:55;2.40;;;1.70;;
11191;SDS011;5652;48.406;10.820;2022-09-12T12:41:42;2.17;;;1.90;;
11191;SDS011;5652;48.406;10.820;2022-09-12T12:47:07;2.20;;;1.70;;
11191;SDS011;5652;48.406;10.820;2022-09-12T12:49:39;3.00;;;1.80;;
11191;SDS011;5652;48.406;10.820;2022-09-12T12:52:15;1.98;;;1.73;;
11191;SDS011;5652;48.406;10.820;2022-09-12T12:54:47;2.28;;;1.80;;
11191;SDS011;5652;48.406;10.820;2022-09-12T12:57:16;2.10;;;1.50;;
11191;SDS011;5652;48.406;10.820;2022-09-12T12:59:45;2.60;;;1.50;;
11191;SDS011;5652;48.406;10.820;2022-09-12T13:02:14;2.53;;;2.20;;
11191;SDS011;5652;48.406;10.820;2022-09-12T13:04:44;2.45;;;1.77;;
11191;SDS011;5652;48.406;10.820;2022-09-12T13:07:12;3.40;;;2.00;;
11191;SDS011;5652;48.406;10.820;2022-09-12T13:09:49;3.03;;;1.80;;
11191;SDS011;5652;48.406;10.820;2022-09-12T13:12:19;3.15;;;1.70;;
11191;SDS011;5652;48.406;10.820;2022-09-12T13:14:51;2.47;;;1.70;;
11191;SDS011;5652;48.406;10.820;2022-09-12T13:17:23;4.80;;;2.07;;
11191;SDS011;5652;48.406;10.820;2022-09-12T13:19:52;1.90;;;1.70;;
11191;SDS011;5652;48.406;10.820;2022-09-12T13:22:21;1.98;;;1.60;;
11191;SDS011;5652;48.406;10.820;2022-09-12T13:24:51;2.13;;;1.80;;
11191;SDS011;5652;48.406;10.820;2022-09-12T13:27:19;2.40;;;1.80;;
11191;SDS011;5652;48.406;10.820;2022-09-12T13:29:47;2.33;;;1.58;;
11191;SDS011;5652;48.406;10.820;2022-09-12T13:32:14;2.70;;;1.80;;
11191;SDS011;5652;48.406;10.820;2022-09-12T13:34:46;2.07;;;1.73;;
11191;SDS011;5652;48.406;10.820;2022-09-12T13:40:09;2.03;;;1.77;;
11191;SDS011;5652;48.406;10.820;2022-09-12T13:42:41;2.03;;;1.80;;
11191;SDS011;5652;48.406;10.820;2022-09-12T13:45:11;2.15;;;1.73;;
11191;SDS011;5652;48.406;10.820;2022-09-12T13:47:39;1.90;;;1.60;;
11191;SDS011;5652;48.406;10.820;2022-09-12T13:50:12;1.90;;;1.70;;
11191;SDS011;5652;48.406;10.820;2022-09-12T13:52:40;2.20;;;1.63;;
11191;SDS011;5652;48.406;10.820;2022-09-12T13:55:15;2.67;;;1.70;;
11191;SDS011;5652;48.406;10.820;2022-09-12T13:57:54;1.58;;;1.48;;
11191;SDS011;5652;48.406;10.820;2022-09-12T14:00:22;2.00;;;1.60;;
11191;SDS011;5652;48.406;10.820;2022-09-12T14:02:50;2.55;;;1.48;;
11191;SDS011;5652;48.406;10.820;2022-09-12T14:05:38;2.63;;;1.50;;
11191;SDS011;5652;48.406;10.820;2022-09-12T14:08:09;1.77;;;1.40;;
11191;SDS011;5652;48.406;10.820;2022-09-12T14:10:40;2.03;;;1.60;;
11191;SDS011;5652;48.406;10.820;2022-09-12T14:13:09;2.80;;;1.83;;
11191;SDS011;5652;48.406;10.820;2022-09-12T14:15:37;1.97;;;1.53;;
11191;SDS011;5652;48.406;10.820;2022-09-12T14:18:05;2.35;;;1.67;;
11191;SDS011;5652;48.406;10.820;2022-09-12T14:20:34;2.40;;;1.63;;
11191;SDS011;5652;48.406;10.820;2022-09-12T14:23:03;1.83;;;1.63;;
11191;SDS011;5652;48.406;10.820;2022-09-12T14:25:34;2.03;;;1.70;;
11191;SDS011;5652;48.406;10.820;2022-09-12T14:28:04;2.10;;;1.70;;
11191;SDS011;5652;48.406;10.820;2022-09-12T14:30:32;1.80;;;1.70;;
11191;SDS011;5652;48.406;10.820;2022-09-12T14:35:46;2.15;;;1.65;;
11191;SDS011;5652;48.406;10.820;2022-09-12T14:38:18;2.95;;;1.70;;
11191;SDS011;5652;48.406;10.820;2022-09-12T14:40:48;2.08;;;1.80;;
11191;SDS011;5652;48.406;10.820;2022-09-12T14:43:19;2.90;;;1.70;;
11191;SDS011;5652;48.406;10.820;2022-09-12T14:45:51;1.50;;;1.30;;
11191;SDS011;5652;48.406;10.820;2022-09-12T14:48:18;2.70;;;1.45;;
11191;SDS011;5652;48.406;10.820;2022-09-12T14:50:47;1.67;;;1.42;;
11191;SDS011;5652;48.406;10.820;2022-09-12T14:53:20;4.45;;;1.60;;
11191;SDS011;5652;48.406;10.820;2022-09-12T14:55:49;2.70;;;1.60;;
11191;SDS011;5652;48.406;10.820;2022-09-12T14:58:23;1.98;;;1.50;;
11191;SDS011;5652;48.406;10.820;2022-09-12T15:00:54;1.70;;;1.48;;
11191;SDS011;5652;48.406;10.820;2022-09-12T15:03:24;2.53;;;1.60;;
11191;SDS011;5652;48.406;10.820;2022-09-12T15:05:51;2.90;;;1.63;;
11191;SDS011;5652;48.406;10.820;2022-09-12T15:08:19;1.92;;;1.50;;
11191;SDS011;5652;48.406;10.820;2022-09-12T15:10:46;2.00;;;1.70;;
11191;SDS011;5652;48.406;10.820;2022-09-12T15:13:17;2.03;;;1.40;;
11191;SDS011;5652;48.406;10.820;2022-09-12T15:18:35;4.45;;;1.60;;
11191;SDS011;5652;48.406;10.820;2022-09-12T15:21:03;2.30;;;1.50;;
11191;SDS011;5652;48.406;10.820;2022-09-12T15:23:33;3.58;;;1.55;;